Home   Weather   38°58'N, 1°25'E   Past weeks
Flag for Spain

Past Weather in 38°58'N, 1°25'E, Spain — Yesterday and Last 2 Weeks

Currently: 57 °F. Passing clouds. (Weather station: Ibiza / Es Codola, Spain). See more current weather

Past Weather in 38°58'N, 1°25'E — Graph

°F

38°58'N, 1°25'E Temperature Yesterday

Maximum temperature yesterday: 59 °F (at 2:00 pm)
Minimum temperature yesterday: 46 °F (at 12:00 am)
Average temperature yesterday: 54 °F

High & Low Weather Summary for the Past Weeks

 TemperatureHumidityPressure
High66 °F (Feb 13, 4:00 pm)100% (Feb 20, 3:30 am)30.57 "Hg (Feb 20, 3:30 am)
Low43 °F (Feb 25, 12:30 am)29% (Feb 24, 4:00 pm)29.53 "Hg (Feb 26, 3:00 pm)
Average57 °F72%30.08 "Hg
* Reported Feb 13 3:00 pm — Feb 28 3:30 pm, 38°58'N, 1°25'E. Weather by CustomWeather, © 2024

Note: Actual official high and low records may vary slightly from our data, if they occured in-between our weather recording intervals... More about our weather records

38°58'N, 1°25'E Weather History for the Previous 24 Hours

Scroll right to see more
 ConditionsComfort  
Time TempWeatherWind HumidityBarometerVisibility
3:30 pm
Wed, Feb 28
57 °FPassing clouds.14 mph44%30.04 "HgN/A
3:00 pm59 °FPassing clouds.9 mph45%30.04 "HgN/A
2:30 pm57 °FPassing clouds.15 mph48%30.04 "HgN/A
2:00 pm59 °FPassing clouds.12 mph45%30.04 "HgN/A
1:30 pm61 °FPassing clouds.13 mph42%30.04 "HgN/A
1:00 pm59 °FPassing clouds.13 mph45%30.04 "HgN/A
12:30 pm61 °FPassing clouds.14 mph45%30.04 "HgN/A
12:00 pm59 °FPassing clouds.15 mph48%30.04 "HgN/A
11:30 am57 °FPassing clouds.15 mph51%30.01 "HgN/A
11:00 am57 °FPassing clouds.15 mph48%30.01 "HgN/A
10:30 am55 °FPassing clouds.12 mph51%30.01 "HgN/A
10:00 am55 °FPassing clouds.10 mph51%30.01 "HgN/A
9:30 am55 °FPassing clouds.12 mph51%30.01 "HgN/A
9:00 am54 °FPassing clouds.10 mph54%30.01 "HgN/A
8:30 am54 °FPassing clouds.10 mph58%29.98 "HgN/A
8:00 am54 °FPassing clouds.12 mph58%29.98 "HgN/A
7:30 am54 °FPassing clouds.9 mph58%29.98 "HgN/A
7:00 am54 °FPassing clouds.8 mph58%29.98 "HgN/A
6:30 am54 °FPassing clouds.9 mph58%29.98 "HgN/A
6:00 am54 °FPassing clouds.13 mph58%29.95 "HgN/A
5:30 am54 °FPassing clouds.13 mph54%29.95 "HgN/A
5:00 am54 °FPassing clouds.16 mph54%29.95 "HgN/A
4:30 am54 °FClear.22 mph54%29.92 "Hg10 mi
4:00 am54 °FClear.24 mph51%29.92 "Hg10 mi
3:30 am54 °FPassing clouds.22 mph54%29.92 "HgN/A
3:00 am54 °FClear.23 mph54%29.92 "Hg10 mi
2:30 am54 °FClear.20 mph54%29.92 "Hg10 mi
2:00 am55 °FClear.20 mph51%29.92 "Hg10 mi
1:30 am55 °FPassing clouds.18 mph55%29.92 "HgN/A
1:00 am55 °FPassing clouds.21 mph55%29.92 "HgN/A
12:30 am55 °FPassing clouds.12 mph55%29.92 "HgN/A
12:00 am55 °FClear.5 mph59%29.92 "Hg10 mi
11:30 pm
Tue, Feb 27
55 °FClear.10 mph55%29.92 "Hg10 mi
11:00 pm55 °FPassing clouds.8 mph59%29.92 "HgN/A
10:30 pm57 °FPassing clouds.13 mph59%29.92 "HgN/A
10:00 pm57 °FPassing clouds.15 mph59%29.89 "HgN/A
9:30 pm57 °FClear.8 mph63%29.89 "Hg10 mi
9:00 pm55 °FPassing clouds.3 mph67%29.89 "HgN/A
8:30 pm55 °FPassing clouds.3 mph67%29.89 "HgN/A
8:00 pm55 °FPassing clouds.5 mph63%29.89 "HgN/A
7:30 pm55 °FPassing clouds.3 mph63%29.86 "HgN/A
7:00 pm57 °FClear.3 mph55%29.86 "Hg10 mi
6:30 pm57 °FSunny.7 mph55%29.86 "Hg10 mi
6:00 pm59 °FPassing clouds.5 mph48%29.86 "HgN/A
5:30 pm59 °FPassing clouds.6 mph48%29.83 "HgN/A
5:00 pm59 °FPassing clouds.13 mph45%29.83 "HgN/A
4:30 pm59 °FPassing clouds.10 mph48%29.83 "HgN/A
4:00 pm59 °FPassing clouds.13 mph48%29.83 "HgN/A
Weather by CustomWeather, © 2024

See weather overview